Chicago, IL (60659)

10:37 PM CDT on September 01, 2015 (GMT -0500)
West Rogers Park | | Change Station
CLOSE
Current Station
Personal Weather Station
Location: Chicago, IL
Elevation: 595 ft
Nearby Weather Stations

Elev 595 ft 42.00 °N, 87.69 °W | Updated 4 seconds ago

Clear
Clear
81.3 °F
Feels Like 86 °F
N
6.3
Wind Variable Wind from SE
Gusts 9.6 mph

Today
High -- | Low -- °F
--% Chance of Precip.
Yesterday
High -- | Low -- °F
Precip. -- in
6:16 AM 7:24 PM
Waning Gibbous, 84% visible
Pressure 30.01 in
Visibility 9.0 miles
Clouds Few 25000 ft
Heat Index 86 °F
Dew Point 72 °F
Humidity 73%
Rainfall in
Snow Depth Not available.
UV 0 out of 12
Pollen 11.00 out of 12
Air Quality Not available.
Flu Activity Not available.
METAR KORD 020251Z 19009KT 9SM FEW250 27/23 A3002 RMK AO2 SLP162 T02670228 53011
Pressure 30.01 in
Visibility 9.0 miles
Clouds Few 25000 ft
Heat Index 86 °F
Dew Point 72 °F
Humidity 73%
Rainfall in
Snow Depth Not available.
UV 0 out of 12
Pollen 11.00 out of 12
Air Quality Not available.
Flu Activity Not available.
METAR KORD 020251Z 19009KT 9SM FEW250 27/23 A3002 RMK AO2 SLP162 T02670228 53011

10-Day Weather Forecast

×

Almanac

Astronomy

Sep. 01, 2015 Rise Set
Actual Time
Civil Twilight
Nautical Twilight
Astronomical Twilight
Moon
Length of Visible Light
Length of Day
Tomorrow will be .
, % of the Moon is Illuminated

Today's Extremes

State Highs State Lows

Community

WunderPhotos

Upload Photos

1,851,690 photos uploaded!

WunderBlogs® & News

Nearby

Air Quality

  Air Quality AQ Index Pollutant
Not available.

Snow Depth

Station Depth Elevation

Earthquake Activity

City Distance Mag. Time & Date
Minimum magnitude displayed is 2.5.

Coastal Water Temperatures

Place Temperature

Stations

Nearby Weather Stations

Station Location Temp. Windchill Dew Point Humidity Wind Precip. Elev Updated Type